Time;durP1;ratioP1;P1;durP2;ratioP2;P2;SDS_P1;SDS_P2;PMS_P1;PMS_P2;Temp;Humidity;BMP_temperature;BMP_pressure;BME280_temperature;BME280_humidity;BME280_pressure;Samples;Min_cycle;Max_cycle;Signal;HPM_P1;HPM_P2
2023/06/05 00:02:15;;;;;;;0.85;0.85;;;;;;;;;;7395775;19;20136;-89
2023/06/05 00:04:43;;;;;;;0.68;0.68;;;;;;;;;;7392458;19;20153;-90
2023/06/05 00:07:10;;;;;;;0.63;0.63;;;;;;;;;;7395002;19;20159;-90
2023/06/05 00:09:36;;;;;;;0.50;0.50;;;;;;;;;;7392346;19;20196;-89
2023/06/05 00:12:03;;;;;;;1.15;1.02;;;;;;;;;;7391739;19;20175;-90
2023/06/05 00:14:30;;;;;;;2.83;1.00;;;;;;;;;;7393151;19;20511;-89
2023/06/05 00:16:57;;;;;;;1.08;1.02;;;;;;;;;;7397342;19;20141;-88
2023/06/05 00:19:24;;;;;;;0.70;0.70;;;;;;;;;;7396718;19;20148;-89
2023/06/05 00:21:52;;;;;;;1.15;0.73;;;;;;;;;;7394882;19;20189;-90
2023/06/05 00:24:22;;;;;;;1.30;1.20;;;;;;;;;;7395029;19;20147;-89
2023/06/05 00:26:54;;;;;;;0.75;0.75;;;;;;;;;;7395449;19;20141;-89
2023/06/05 00:29:21;;;;;;;0.68;0.63;;;;;;;;;;7395213;19;20673;-89
2023/06/05 00:32:58;;;;;;;0.60;0.60;;;;;;;;;;7392899;19;20189;-89
2023/06/05 00:35:46;;;;;;;0.43;0.43;;;;;;;;;;7389458;19;20208;-90
2023/06/05 00:38:28;;;;;;;0.75;0.75;;;;;;;;;;7391321;19;20148;-90
2023/06/05 00:42:12;;;;;;;0.50;0.50;;;;;;;;;;7396897;19;20176;-90
2023/06/05 00:45:15;;;;;;;0.68;0.68;;;;;;;;;;7397578;19;20137;-89
2023/06/05 00:47:42;;;;;;;1.00;1.00;;;;;;;;;;7390114;19;20144;-90
2023/06/05 00:50:11;;;;;;;0.52;0.52;;;;;;;;;;7395889;19;20169;-89
2023/06/05 00:52:38;;;;;;;0.65;0.65;;;;;;;;;;7397814;19;20830;-90
2023/06/05 00:55:06;;;;;;;0.43;0.43;;;;;;;;;;7401016;19;20141;-90
2023/06/05 00:57:34;;;;;;;1.00;1.00;;;;;;;;;;7402470;19;20144;-90
2023/06/05 01:00:06;;;;;;;4.38;1.20;;;;;;;;;;7398187;19;20216;-90
2023/06/05 01:02:35;;;;;;;0.45;0.45;;;;;;;;;;7402144;19;20145;-92
2023/06/05 01:05:03;;;;;;;1.15;0.73;;;;;;;;;;7398812;19;20133;-92
2023/06/05 01:07:32;;;;;;;0.40;0.40;;;;;;;;;;7400552;19;20160;-91
2023/06/05 01:10:01;;;;;;;0.95;0.95;;;;;;;;;;7397416;19;20218;-91
2023/06/05 01:12:46;;;;;;;0.40;0.40;;;;;;;;;;7397783;19;20143;-92
2023/06/05 01:15:15;;;;;;;0.70;0.70;;;;;;;;;;7400661;19;20137;-91
2023/06/05 01:17:47;;;;;;;1.95;0.98;;;;;;;;;;7398580;19;20144;-92
2023/06/05 01:20:19;;;;;;;0.82;0.82;;;;;;;;;;7400797;19;20252;-91
2023/06/05 01:22:49;;;;;;;0.50;0.50;;;;;;;;;;7398973;19;20140;-91
2023/06/05 01:25:18;;;;;;;0.40;0.40;;;;;;;;;;7399392;19;20167;-91
2023/06/05 01:27:50;;;;;;;0.50;0.50;;;;;;;;;;7401568;19;20143;-90
2023/06/05 01:30:29;;;;;;;1.35;1.25;;;;;;;;;;7401275;19;20157;-91
2023/06/05 01:33:28;;;;;;;0.70;0.70;;;;;;;;;;7401896;19;20142;-91
2023/06/05 01:35:55;;;;;;;0.60;0.60;;;;;;;;;;7399307;19;20152;-91
2023/06/05 01:38:22;;;;;;;0.63;0.63;;;;;;;;;;7401001;19;20136;-92
2023/06/05 01:40:50;;;;;;;0.70;0.70;;;;;;;;;;7397794;19;20712;-91
2023/06/05 01:43:18;;;;;;;0.70;0.70;;;;;;;;;;7398779;19;20179;-90
2023/06/05 01:45:45;;;;;;;0.70;0.70;;;;;;;;;;7397233;19;20165;-90
2023/06/05 01:48:12;;;;;;;0.50;0.50;;;;;;;;;;7402095;19;20126;-91
2023/06/05 01:50:45;;;;;;;0.98;0.63;;;;;;;;;;7397159;19;20228;-92
2023/06/05 01:53:12;;;;;;;0.70;0.70;;;;;;;;;;7402981;19;20151;-91
2023/06/05 01:55:40;;;;;;;0.80;0.80;;;;;;;;;;7403365;19;20150;-91
2023/06/05 01:58:07;;;;;;;0.70;0.70;;;;;;;;;;7398097;19;20148;-92
2023/06/05 02:00:35;;;;;;;0.73;0.73;;;;;;;;;;7399290;19;20162;-91
2023/06/05 02:03:03;;;;;;;0.90;0.90;;;;;;;;;;7400164;19;20204;-91
2023/06/05 02:05:30;;;;;;;0.82;0.70;;;;;;;;;;7399183;19;20137;-91
2023/06/05 02:07:58;;;;;;;0.30;0.30;;;;;;;;;;7398543;19;20139;-90
2023/06/05 02:10:25;;;;;;;0.82;0.82;;;;;;;;;;7400205;19;20187;-91
2023/06/05 02:12:52;;;;;;;0.65;0.65;;;;;;;;;;7400526;19;20125;-90
2023/06/05 02:15:18;;;;;;;0.50;0.50;;;;;;;;;;7395025;19;20133;-91
2023/06/05 02:17:50;;;;;;;0.77;0.77;;;;;;;;;;7397065;19;20167;-91
2023/06/05 02:20:18;;;;;;;0.50;0.50;;;;;;;;;;7397005;19;20168;-90
2023/06/05 02:22:49;;;;;;;0.47;0.47;;;;;;;;;;7398698;19;20137;-91
2023/06/05 02:25:16;;;;;;;1.58;0.95;;;;;;;;;;7396472;19;20176;-91
2023/06/05 02:27:43;;;;;;;0.90;0.90;;;;;;;;;;7396686;19;20136;-91
2023/06/05 02:30:11;;;;;;;0.40;0.40;;;;;;;;;;7396593;19;20572;-90
2023/06/05 02:32:44;;;;;;;0.75;0.73;;;;;;;;;;7393680;19;20706;-90
2023/06/05 02:35:11;;;;;;;0.40;0.40;;;;;;;;;;7395344;19;20167;-91
2023/06/05 02:37:43;;;;;;;0.30;0.30;;;;;;;;;;7394728;19;20161;-91
2023/06/05 02:40:11;;;;;;;0.60;0.50;;;;;;;;;;7392932;19;20509;-91
2023/06/05 02:42:40;;;;;;;1.08;0.98;;;;;;;;;;7395777;19;20145;-90
2023/06/05 02:45:08;;;;;;;0.30;0.30;;;;;;;;;;7393480;19;20159;-90
2023/06/05 02:47:34;;;;;;;0.55;0.55;;;;;;;;;;7393074;19;20147;-91
2023/06/05 02:50:02;;;;;;;0.93;0.93;;;;;;;;;;7392922;19;20177;-91
2023/06/05 02:52:32;;;;;;;0.68;0.68;;;;;;;;;;7390858;19;20157;-91
2023/06/05 02:54:58;;;;;;;0.65;0.65;;;;;;;;;;7393227;19;20140;-90
2023/06/05 02:57:26;;;;;;;0.70;0.70;;;;;;;;;;7395220;19;20228;-90
2023/06/05 02:59:55;;;;;;;0.50;0.50;;;;;;;;;;7393461;19;20205;-91
2023/06/05 03:02:22;;;;;;;0.60;0.60;;;;;;;;;;7393616;19;20148;-90
2023/06/05 03:04:55;;;;;;;0.57;0.57;;;;;;;;;;7394330;19;20204;-91
2023/06/05 03:07:22;;;;;;;0.40;0.40;;;;;;;;;;7393467;19;20154;-90
2023/06/05 03:09:49;;;;;;;0.43;0.43;;;;;;;;;;7391780;19;20228;-90
2023/06/05 03:12:17;;;;;;;1.10;1.10;;;;;;;;;;7392292;19;20154;-91
2023/06/05 03:14:44;;;;;;;0.55;0.55;;;;;;;;;;7392521;19;20613;-91
2023/06/05 03:17:11;;;;;;;0.50;0.50;;;;;;;;;;7391994;19;20620;-90
2023/06/05 03:19:38;;;;;;;0.47;0.47;;;;;;;;;;7393482;19;20129;-91
2023/06/05 03:22:05;;;;;;;0.40;0.40;;;;;;;;;;7393700;19;20165;-91
2023/06/05 03:24:32;;;;;;;0.80;0.80;;;;;;;;;;7395234;19;20216;-92
2023/06/05 03:26:58;;;;;;;0.50;0.50;;;;;;;;;;7395533;19;20157;-90
2023/06/05 03:29:26;;;;;;;0.68;0.68;;;;;;;;;;7392998;19;20511;-91
2023/06/05 03:31:53;;;;;;;1.02;1.02;;;;;;;;;;7394228;19;20157;-90
2023/06/05 03:34:19;;;;;;;0.93;0.77;;;;;;;;;;7392607;19;20617;-91
2023/06/05 03:36:48;;;;;;;3.45;0.50;;;;;;;;;;7393792;19;20140;-91
2023/06/05 03:39:15;;;;;;;0.60;0.60;;;;;;;;;;7392280;19;20186;-90
2023/06/05 03:41:41;;;;;;;0.88;0.88;;;;;;;;;;7393478;19;20161;-90
2023/06/05 03:44:08;;;;;;;2.37;1.23;;;;;;;;;;7391478;19;20137;-91
2023/06/05 03:46:35;;;;;;;0.43;0.43;;;;;;;;;;7391604;19;20137;-91
2023/06/05 03:49:08;;;;;;;0.45;0.45;;;;;;;;;;7391911;19;20216;-91
2023/06/05 03:51:35;;;;;;;0.50;0.50;;;;;;;;;;7391151;19;20267;-91
2023/06/05 03:54:03;;;;;;;0.50;0.50;;;;;;;;;;7393449;19;20141;-91
2023/06/05 03:56:39;;;;;;;5.55;1.38;;;;;;;;;;7390787;19;20481;-90
2023/06/05 03:59:09;;;;;;;0.50;0.50;;;;;;;;;;7396017;19;20572;-91
2023/06/05 04:01:38;;;;;;;0.50;0.50;;;;;;;;;;7392630;19;20232;-91
2023/06/05 04:04:05;;;;;;;1.00;1.00;;;;;;;;;;7394018;19;20144;-91
2023/06/05 04:06:33;;;;;;;1.03;1.03;;;;;;;;;;7393103;19;20192;-91
2023/06/05 04:08:59;;;;;;;0.30;0.30;;;;;;;;;;7392218;19;20140;-91
2023/06/05 04:11:26;;;;;;;0.30;0.30;;;;;;;;;;7394158;19;20224;-91
2023/06/05 04:13:56;;;;;;;1.70;0.80;;;;;;;;;;7397837;19;20611;-91
2023/06/05 04:16:23;;;;;;;0.50;0.50;;;;;;;;;;7402689;19;20193;-91
2023/06/05 04:18:50;;;;;;;1.07;1.07;;;;;;;;;;7402407;19;20145;-91
2023/06/05 04:21:16;;;;;;;0.30;0.30;;;;;;;;;;7400323;19;20161;-90
2023/06/05 04:23:43;;;;;;;1.40;0.77;;;;;;;;;;7403090;19;20570;-90
2023/06/05 04:26:11;;;;;;;0.55;0.55;;;;;;;;;;7400772;19;20482;-89
2023/06/05 04:28:38;;;;;;;1.25;1.15;;;;;;;;;;7400386;19;20141;-90
2023/06/05 04:31:05;;;;;;;2.27;1.10;;;;;;;;;;7400111;19;20159;-90
2023/06/05 04:33:32;;;;;;;0.83;0.83;;;;;;;;;;7399313;19;20145;-90
2023/06/05 04:35:59;;;;;;;0.90;0.90;;;;;;;;;;7397756;19;20487;-89
2023/06/05 04:38:34;;;;;;;0.50;0.50;;;;;;;;;;7398632;19;20164;-91
2023/06/05 04:41:04;;;;;;;0.70;0.70;;;;;;;;;;7426480;19;20160;-91
2023/06/05 04:43:38;;;;;;;1.30;1.20;;;;;;;;;;7428838;19;20154;-92
2023/06/05 04:46:08;;;;;;;0.70;0.70;;;;;;;;;;7425632;19;20140;-90
2023/06/05 04:48:40;;;;;;;0.70;0.70;;;;;;;;;;7427740;19;20173;-91
2023/06/05 04:51:07;;;;;;;0.40;0.40;;;;;;;;;;7422789;19;20177;-90
2023/06/05 04:53:37;;;;;;;0.63;0.63;;;;;;;;;;7427410;19;20125;-91
2023/06/05 04:56:04;;;;;;;0.75;0.75;;;;;;;;;;7425442;19;20133;-91
2023/06/05 04:58:31;;;;;;;1.40;1.27;;;;;;;;;;7418914;19;20167;-92
2023/06/05 05:01:04;;;;;;;0.77;0.77;;;;;;;;;;7403728;19;20175;-92
2023/06/05 05:03:42;;;;;;;1.10;1.00;;;;;;;;;;7401537;19;20628;-92
2023/06/05 05:06:10;;;;;;;0.57;0.57;;;;;;;;;;7404638;19;20148;-91
2023/06/05 05:08:37;;;;;;;0.85;0.85;;;;;;;;;;7402628;19;20145;-91
2023/06/05 05:11:04;;;;;;;0.75;0.75;;;;;;;;;;7403765;19;20189;-91
2023/06/05 05:13:31;;;;;;;0.40;0.40;;;;;;;;;;7403258;19;20163;-90
2023/06/05 05:15:59;;;;;;;1.65;0.75;;;;;;;;;;7403666;19;20133;-91
2023/06/05 05:18:28;;;;;;;0.55;0.55;;;;;;;;;;7403825;19;20144;-91
2023/06/05 05:21:02;;;;;;;0.70;0.70;;;;;;;;;;7394260;19;20171;-90
2023/06/05 05:23:29;;;;;;;0.65;0.65;;;;;;;;;;7392773;19;20152;-90
2023/06/05 05:25:55;;;;;;;0.68;0.68;;;;;;;;;;7398317;19;20151;-90
2023/06/05 05:28:22;;;;;;;0.65;0.65;;;;;;;;;;7400664;19;20141;-90
2023/06/05 05:30:51;;;;;;;0.50;0.50;;;;;;;;;;7399728;19;20161;-89
2023/06/05 05:33:18;;;;;;;0.90;0.85;;;;;;;;;;7397889;19;20493;-89
2023/06/05 05:35:44;;;;;;;0.50;0.50;;;;;;;;;;7389283;19;20155;-90
2023/06/05 05:38:11;;;;;;;0.52;0.52;;;;;;;;;;7385384;19;20159;-90
2023/06/05 05:40:39;;;;;;;0.75;0.75;;;;;;;;;;7385276;19;20149;-89
2023/06/05 05:43:55;;;;;;;0.52;0.52;;;;;;;;;;7389990;19;20144;-89
2023/06/05 05:50:12;;;;;;;0.80;0.80;;;;;;;;;;7391449;19;20547;-90
2023/06/05 05:53:12;;;;;;;0.60;0.60;;;;;;;;;;7387412;19;20165;-90
2023/06/05 05:55:57;;;;;;;0.40;0.40;;;;;;;;;;7394389;19;20262;-88
2023/06/05 05:58:26;;;;;;;0.32;0.32;;;;;;;;;;7382371;19;20158;-89
2023/06/05 06:04:29;;;;;;;0.40;0.40;;;;;;;;;;7395504;19;20139;-88
2023/06/05 06:06:56;;;;;;;0.55;0.55;;;;;;;;;;7402634;19;20167;-87
2023/06/05 06:09:23;;;;;;;0.90;0.88;;;;;;;;;;7399944;19;20153;-88
2023/06/05 06:11:49;;;;;;;0.73;0.73;;;;;;;;;;7394342;19;20158;-87
2023/06/05 06:14:16;;;;;;;0.60;0.60;;;;;;;;;;7401745;19;20136;-86
2023/06/05 06:16:43;;;;;;;1.17;0.63;;;;;;;;;;7399225;19;20141;-87
2023/06/05 06:19:14;;;;;;;0.80;0.52;;;;;;;;;;7398664;19;20137;-86
2023/06/05 06:21:40;;;;;;;0.50;0.50;;;;;;;;;;7398427;19;20188;-87
2023/06/05 06:24:07;;;;;;;1.15;0.88;;;;;;;;;;7398021;19;20133;-86
2023/06/05 06:26:38;;;;;;;0.57;0.57;;;;;;;;;;7396444;19;20141;-87
2023/06/05 06:29:05;;;;;;;0.50;0.50;;;;;;;;;;7400268;19;20147;-87
2023/06/05 06:31:31;;;;;;;0.90;0.80;;;;;;;;;;7401487;19;20176;-87
2023/06/05 06:33:59;;;;;;;1.05;0.68;;;;;;;;;;7402283;19;20125;-85
2023/06/05 06:36:26;;;;;;;0.80;0.80;;;;;;;;;;7402750;19;20144;-87
2023/06/05 06:38:53;;;;;;;0.82;0.82;;;;;;;;;;7404547;19;20609;-86
2023/06/05 06:41:22;;;;;;;0.57;0.57;;;;;;;;;;7402094;19;20207;-86
2023/06/05 06:43:49;;;;;;;0.88;0.88;;;;;;;;;;7396631;19;20167;-85
2023/06/05 06:46:16;;;;;;;0.93;0.82;;;;;;;;;;7394549;19;20144;-86
2023/06/05 06:48:43;;;;;;;0.60;0.60;;;;;;;;;;7396385;19;20143;-87
2023/06/05 06:51:10;;;;;;;1.85;1.20;;;;;;;;;;7396099;19;20209;-87
2023/06/05 06:53:37;;;;;;;0.60;0.60;;;;;;;;;;7398382;19;20133;-87
2023/06/05 06:56:04;;;;;;;0.60;0.60;;;;;;;;;;7397156;19;20149;-87
2023/06/05 06:58:31;;;;;;;0.57;0.57;;;;;;;;;;7397122;19;20408;-87
2023/06/05 07:00:58;;;;;;;1.20;1.10;;;;;;;;;;7395185;19;20177;-87
2023/06/05 07:03:25;;;;;;;0.63;0.63;;;;;;;;;;7397240;19;20672;-87
2023/06/05 07:05:52;;;;;;;1.88;1.25;;;;;;;;;;7394656;19;20145;-87
2023/06/05 07:08:19;;;;;;;0.63;0.63;;;;;;;;;;7398055;19;20184;-86
2023/06/05 07:10:46;;;;;;;4.95;1.20;;;;;;;;;;7389300;19;20172;-87
2023/06/05 07:13:13;;;;;;;2.13;1.40;;;;;;;;;;7392576;19;20493;-85
2023/06/05 07:15:40;;;;;;;1.40;0.70;;;;;;;;;;7398200;19;20156;-87
2023/06/05 07:18:07;;;;;;;4.03;1.05;;;;;;;;;;7395179;19;20149;-86
2023/06/05 07:20:36;;;;;;;0.50;0.50;;;;;;;;;;7397799;19;20228;-86
2023/06/05 07:23:03;;;;;;;0.52;0.52;;;;;;;;;;7396061;19;20141;-85
2023/06/05 07:25:30;;;;;;;1.13;1.13;;;;;;;;;;7397134;19;20200;-86
2023/06/05 07:27:59;;;;;;;1.13;1.10;;;;;;;;;;7392903;19;20152;-88
2023/06/05 07:30:28;;;;;;;0.93;0.93;;;;;;;;;;7390952;19;20221;-87
2023/06/05 07:32:55;;;;;;;0.60;0.60;;;;;;;;;;7396447;19;20251;-87
2023/06/05 07:35:23;;;;;;;0.70;0.70;;;;;;;;;;7392876;19;20153;-86
2023/06/05 07:37:50;;;;;;;1.10;0.85;;;;;;;;;;7394403;19;20140;-87
2023/06/05 07:40:17;;;;;;;0.77;0.75;;;;;;;;;;7389241;19;20659;-86
2023/06/05 07:42:44;;;;;;;0.40;0.40;;;;;;;;;;7392955;19;20189;-87
2023/06/05 07:45:10;;;;;;;1.65;1.15;;;;;;;;;;7393094;19;20139;-87
2023/06/05 07:47:37;;;;;;;0.75;0.70;;;;;;;;;;7388592;19;20129;-86
2023/06/05 07:50:06;;;;;;;0.60;0.60;;;;;;;;;;7390962;19;20170;-86
2023/06/05 07:52:33;;;;;;;0.75;0.75;;;;;;;;;;7395124;19;20155;-86
2023/06/05 07:55:00;;;;;;;0.63;0.63;;;;;;;;;;7387465;19;20132;-86
2023/06/05 07:57:29;;;;;;;0.50;0.50;;;;;;;;;;7390871;19;20144;-87
2023/06/05 07:59:56;;;;;;;0.43;0.43;;;;;;;;;;7393492;19;20153;-85
2023/06/05 08:02:23;;;;;;;0.80;0.80;;;;;;;;;;7393373;19;20132;-86
2023/06/05 08:04:50;;;;;;;0.75;0.75;;;;;;;;;;7388077;19;20136;-86
2023/06/05 08:07:17;;;;;;;4.60;1.00;;;;;;;;;;7384537;19;20814;-86
2023/06/05 08:09:43;;;;;;;1.48;0.70;;;;;;;;;;7390369;19;20156;-85
2023/06/05 08:12:10;;;;;;;0.55;0.55;;;;;;;;;;7395727;19;20156;-86
2023/06/05 08:14:38;;;;;;;1.02;0.95;;;;;;;;;;7394860;19;20159;-87
2023/06/05 08:17:07;;;;;;;0.63;0.63;;;;;;;;;;7392494;19;21683;-86
2023/06/05 08:19:34;;;;;;;3.33;1.00;;;;;;;;;;7384246;19;20125;-87
2023/06/05 08:22:01;;;;;;;0.93;0.93;;;;;;;;;;7384821;19;20268;-87
2023/06/05 08:24:29;;;;;;;0.73;0.73;;;;;;;;;;7383557;19;20573;-87
2023/06/05 08:26:55;;;;;;;0.50;0.50;;;;;;;;;;7385800;19;20125;-88
2023/06/05 08:29:22;;;;;;;0.65;0.65;;;;;;;;;;7389716;19;20630;-87
2023/06/05 08:31:49;;;;;;;0.68;0.65;;;;;;;;;;7385996;19;20148;-87
2023/06/05 08:34:16;;;;;;;0.82;0.82;;;;;;;;;;7388936;19;20594;-88
2023/06/05 08:36:42;;;;;;;0.75;0.75;;;;;;;;;;7385694;19;20139;-86
2023/06/05 08:39:09;;;;;;;0.60;0.60;;;;;;;;;;7386102;19;20153;-86
2023/06/05 08:41:37;;;;;;;2.42;1.05;;;;;;;;;;7385488;19;20567;-87
2023/06/05 08:44:04;;;;;;;0.80;0.80;;;;;;;;;;7383481;19;20157;-88
2023/06/05 08:46:34;;;;;;;0.40;0.40;;;;;;;;;;7389058;19;20141;-87
2023/06/05 08:49:08;;;;;;;1.65;1.02;;;;;;;;;;7389787;19;20141;-86
2023/06/05 08:51:37;;;;;;;0.45;0.45;;;;;;;;;;7390456;19;20156;-88
2023/06/05 08:54:06;;;;;;;0.60;0.60;;;;;;;;;;7391944;19;20635;-87
2023/06/05 08:56:35;;;;;;;0.38;0.38;;;;;;;;;;7383400;19;20140;-85
2023/06/05 08:59:04;;;;;;;1.30;1.30;;;;;;;;;;7384496;19;20129;-86
2023/06/05 09:01:32;;;;;;;0.65;0.65;;;;;;;;;;7393577;19;20168;-86
2023/06/05 09:03:58;;;;;;;0.65;0.65;;;;;;;;;;7396728;19;20147;-88
2023/06/05 09:06:25;;;;;;;0.77;0.77;;;;;;;;;;7398406;19;20145;-87
2023/06/05 09:08:52;;;;;;;0.73;0.73;;;;;;;;;;7389852;19;20133;-86
2023/06/05 09:11:23;;;;;;;0.80;0.80;;;;;;;;;;7394178;19;20644;-86
2023/06/05 09:13:51;;;;;;;0.95;0.95;;;;;;;;;;7392620;19;20526;-87
2023/06/05 09:16:20;;;;;;;1.00;0.98;;;;;;;;;;7388162;19;20633;-86
2023/06/05 09:18:55;;;;;;;1.40;1.30;;;;;;;;;;7388666;19;20188;-86
2023/06/05 09:21:28;;;;;;;1.13;1.10;;;;;;;;;;7390079;19;20178;-87
2023/06/05 09:24:18;;;;;;;0.93;0.60;;;;;;;;;;7391551;19;20132;-87
2023/06/05 09:26:50;;;;;;;0.40;0.40;;;;;;;;;;7392394;19;20136;-86
2023/06/05 09:29:38;;;;;;;0.70;0.70;;;;;;;;;;7393651;19;20141;-88
2023/06/05 09:32:09;;;;;;;4.88;1.05;;;;;;;;;;7392171;19;20976;-88
2023/06/05 09:34:39;;;;;;;0.60;0.60;;;;;;;;;;7397448;19;20600;-87
2023/06/05 09:37:10;;;;;;;0.80;0.80;;;;;;;;;;7398453;19;20137;-85
2023/06/05 09:39:38;;;;;;;1.08;1.05;;;;;;;;;;7396429;19;20612;-87
2023/06/05 09:42:06;;;;;;;0.63;0.63;;;;;;;;;;7396784;19;20159;-87
2023/06/05 09:44:35;;;;;;;0.63;0.63;;;;;;;;;;7399772;19;20129;-87
2023/06/05 09:47:02;;;;;;;0.77;0.77;;;;;;;;;;7401269;19;20133;-87
2023/06/05 09:49:33;;;;;;;0.70;0.70;;;;;;;;;;7399089;19;20129;-86
2023/06/05 09:52:01;;;;;;;0.70;0.70;;;;;;;;;;7395335;19;20184;-87
2023/06/05 09:54:29;;;;;;;0.75;0.75;;;;;;;;;;7399055;19;20134;-88
2023/06/05 09:57:01;;;;;;;2.20;1.45;;;;;;;;;;7398905;19;20140;-86
2023/06/05 09:59:32;;;;;;;1.00;0.90;;;;;;;;;;7398483;19;20556;-88
2023/06/05 10:02:04;;;;;;;1.75;1.65;;;;;;;;;;7400173;19;20228;-87
2023/06/05 10:04:46;;;;;;;1.20;1.10;;;;;;;;;;7398964;19;20137;-87
2023/06/05 10:07:13;;;;;;;0.55;0.55;;;;;;;;;;7399008;19;20163;-88
2023/06/05 10:09:41;;;;;;;5.05;0.57;;;;;;;;;;7399849;19;20141;-88
2023/06/05 10:12:08;;;;;;;0.90;0.90;;;;;;;;;;7396769;19;20172;-87
2023/06/05 10:14:35;;;;;;;0.95;0.95;;;;;;;;;;7396369;19;20144;-89
2023/06/05 10:17:02;;;;;;;0.98;0.98;;;;;;;;;;7396654;19;20623;-88
2023/06/05 10:19:30;;;;;;;0.88;0.88;;;;;;;;;;7394809;19;20160;-88
2023/06/05 10:21:56;;;;;;;0.65;0.60;;;;;;;;;;7391991;19;20152;-87
2023/06/05 10:24:27;;;;;;;0.52;0.52;;;;;;;;;;7396208;19;20204;-86
2023/06/05 10:27:02;;;;;;;0.70;0.70;;;;;;;;;;7399347;19;20403;-87
2023/06/05 10:29:55;;;;;;;1.02;1.00;;;;;;;;;;7399200;19;20121;-87
2023/06/05 10:32:31;;;;;;;1.35;1.23;;;;;;;;;;7398991;19;20131;-88
2023/06/05 10:35:12;;;;;;;0.98;0.98;;;;;;;;;;7399484;19;20644;-87
2023/06/05 10:37:47;;;;;;;3.13;1.55;;;;;;;;;;7393684;19;20156;-86
2023/06/05 10:40:16;;;;;;;0.90;0.73;;;;;;;;;;7394637;19;20167;-87
2023/06/05 10:42:43;;;;;;;1.40;1.10;;;;;;;;;;7390802;19;20672;-88
2023/06/05 10:45:10;;;;;;;1.15;1.10;;;;;;;;;;7395469;19;20129;-87
2023/06/05 10:47:36;;;;;;;2.33;1.40;;;;;;;;;;7395988;19;20136;-87
2023/06/05 10:50:16;;;;;;;0.80;0.80;;;;;;;;;;7396700;19;20149;-86
2023/06/05 10:52:43;;;;;;;0.75;0.75;;;;;;;;;;7396772;19;20140;-88
2023/06/05 10:55:15;;;;;;;0.75;0.75;;;;;;;;;;7396118;19;20141;-87
2023/06/05 10:58:00;;;;;;;0.95;0.88;;;;;;;;;;7398891;19;20141;-87
2023/06/05 11:00:28;;;;;;;0.65;0.65;;;;;;;;;;7395256;19;20166;-88
2023/06/05 11:02:55;;;;;;;2.38;1.20;;;;;;;;;;7397975;19;20208;-86
2023/06/05 11:05:23;;;;;;;1.50;0.80;;;;;;;;;;7396994;19;20129;-87
2023/06/05 11:08:11;;;;;;;0.60;0.60;;;;;;;;;;7395230;19;20129;-87
2023/06/05 11:10:37;;;;;;;1.20;1.10;;;;;;;;;;7402388;19;20205;-87
2023/06/05 11:13:07;;;;;;;0.68;0.68;;;;;;;;;;7404264;19;20141;-87
2023/06/05 11:15:39;;;;;;;0.90;0.90;;;;;;;;;;7394708;19;20147;-87
2023/06/05 11:18:30;;;;;;;0.52;0.52;;;;;;;;;;7400643;19;20148;-87
2023/06/05 11:20:58;;;;;;;0.68;0.68;;;;;;;;;;7406876;19;20160;-87
2023/06/05 11:23:29;;;;;;;0.75;0.68;;;;;;;;;;7397435;19;20141;-87
2023/06/05 11:25:57;;;;;;;1.30;0.95;;;;;;;;;;7392493;19;20141;-87
2023/06/05 11:28:37;;;;;;;1.40;1.30;;;;;;;;;;7393363;19;20630;-87
2023/06/05 11:31:04;;;;;;;0.80;0.80;;;;;;;;;;7393139;19;20152;-86
2023/06/05 11:33:31;;;;;;;0.50;0.50;;;;;;;;;;7394595;19;20155;-88
2023/06/05 11:36:03;;;;;;;0.45;0.45;;;;;;;;;;7391904;19;20140;-87
2023/06/05 11:38:30;;;;;;;0.40;0.40;;;;;;;;;;7393532;19;20145;-87
2023/06/05 11:40:57;;;;;;;0.40;0.40;;;;;;;;;;7393481;19;20184;-87
2023/06/05 11:43:24;;;;;;;1.48;1.30;;;;;;;;;;7394996;19;20504;-87
2023/06/05 11:45:55;;;;;;;0.70;0.70;;;;;;;;;;7392078;19;20137;-87
2023/06/05 11:48:24;;;;;;;1.00;0.98;;;;;;;;;;7393920;19;20144;-87
2023/06/05 11:50:57;;;;;;;1.20;1.20;;;;;;;;;;7391934;19;20165;-87
2023/06/05 11:53:25;;;;;;;1.05;1.05;;;;;;;;;;7396348;19;20141;-87
2023/06/05 11:58:27;;;;;;;0.85;0.85;;;;;;;;;;7402489;19;20137;-87
2023/06/05 12:01:05;;;;;;;0.95;0.95;;;;;;;;;;7401790;19;20159;-88
2023/06/05 12:03:35;;;;;;;1.05;1.05;;;;;;;;;;7400211;19;20141;-87
2023/06/05 12:06:03;;;;;;;0.45;0.45;;;;;;;;;;7401581;19;20149;-88
2023/06/05 12:08:34;;;;;;;1.30;1.20;;;;;;;;;;7403676;19;20189;-87
2023/06/05 12:11:02;;;;;;;0.60;0.60;;;;;;;;;;7402525;19;20159;-88
2023/06/05 13:54:47;;;;;;;1.08;1.00;;;;;;;;;;7405831;19;20143;-86
2023/06/05 13:57:30;;;;;;;0.93;0.80;;;;;;;;;;7396818;19;20137;-86
2023/06/05 13:59:56;;;;;;;0.88;0.88;;;;;;;;;;7396673;19;20489;-87
2023/06/05 14:02:26;;;;;;;1.08;0.98;;;;;;;;;;7397057;19;20152;-86
2023/06/05 14:04:53;;;;;;;1.13;1.02;;;;;;;;;;7398054;19;20141;-86
2023/06/05 14:07:20;;;;;;;1.25;1.15;;;;;;;;;;7392512;19;20141;-86
2023/06/05 14:09:50;;;;;;;1.25;1.15;;;;;;;;;;7399677;19;20133;-87
2023/06/05 14:12:17;;;;;;;0.77;0.77;;;;;;;;;;7398344;19;20173;-87
2023/06/05 14:14:50;;;;;;;1.05;0.80;;;;;;;;;;7397910;19;20140;-87
2023/06/05 14:17:20;;;;;;;1.02;0.90;;;;;;;;;;7399222;19;20628;-86
2023/06/05 14:19:46;;;;;;;0.82;0.82;;;;;;;;;;7396015;19;20141;-87
2023/06/05 14:22:13;;;;;;;0.63;0.63;;;;;;;;;;7396751;19;20156;-88
2023/06/05 14:24:40;;;;;;;1.23;0.85;;;;;;;;;;7398234;19;20137;-88
2023/06/05 14:27:18;;;;;;;0.90;0.90;;;;;;;;;;7399660;19;20208;-88
2023/06/05 14:30:02;;;;;;;0.63;0.63;;;;;;;;;;7398089;19;20223;-88
2023/06/05 14:35:30;;;;;;;0.85;0.85;;;;;;;;;;7402175;19;20164;-88
2023/06/05 14:37:57;;;;;;;0.65;0.65;;;;;;;;;;7397406;19;20150;-87
2023/06/05 14:40:24;;;;;;;0.73;0.73;;;;;;;;;;7396884;19;20212;-88
2023/06/05 14:43:07;;;;;;;0.60;0.60;;;;;;;;;;7399172;19;20133;-88
2023/06/05 14:45:53;;;;;;;0.90;0.90;;;;;;;;;;7395564;19;20226;-87
2023/06/05 14:48:20;;;;;;;0.70;0.70;;;;;;;;;;7396874;19;20150;-88
2023/06/05 14:51:00;;;;;;;1.08;1.08;;;;;;;;;;7405910;19;20531;-88
2023/06/05 14:53:33;;;;;;;2.30;1.30;;;;;;;;;;7401330;19;20203;-88
2023/06/05 14:56:00;;;;;;;1.13;0.68;;;;;;;;;;7404091;19;20436;-88
2023/06/05 14:58:27;;;;;;;1.05;1.05;;;;;;;;;;7396716;19;20139;-87
2023/06/05 15:00:53;;;;;;;0.98;0.98;;;;;;;;;;7396719;19;20478;-88
2023/06/05 15:03:23;;;;;;;0.93;0.93;;;;;;;;;;7402374;19;20121;-87
2023/06/05 15:05:52;;;;;;;0.60;0.60;;;;;;;;;;7397628;19;20150;-87
2023/06/05 15:08:20;;;;;;;0.55;0.55;;;;;;;;;;7403169;19;20143;-89
2023/06/05 15:10:46;;;;;;;2.03;1.45;;;;;;;;;;7409408;19;20185;-89
2023/06/05 15:13:13;;;;;;;0.63;0.63;;;;;;;;;;7403673;19;20170;-89
2023/06/05 15:15:40;;;;;;;1.27;1.27;;;;;;;;;;7418191;19;20139;-88
2023/06/05 15:18:07;;;;;;;1.08;1.08;;;;;;;;;;7412856;19;20550;-88
2023/06/05 15:20:34;;;;;;;1.02;0.55;;;;;;;;;;7420686;19;20169;-88
2023/06/05 15:23:03;;;;;;;0.70;0.70;;;;;;;;;;7410876;19;20141;-87
2023/06/05 15:25:42;;;;;;;0.73;0.73;;;;;;;;;;7423183;19;20136;-86
2023/06/05 15:28:08;;;;;;;1.00;0.68;;;;;;;;;;7413609;19;20149;-87
2023/06/05 15:30:35;;;;;;;0.50;0.50;;;;;;;;;;7419224;19;20190;-86
2023/06/05 15:33:03;;;;;;;1.33;1.05;;;;;;;;;;7410408;19;20133;-87
2023/06/05 15:35:30;;;;;;;0.88;0.88;;;;;;;;;;7421521;19;20161;-87
2023/06/05 15:37:56;;;;;;;0.60;0.60;;;;;;;;;;7421803;19;20153;-87
2023/06/05 15:40:23;;;;;;;1.48;1.25;;;;;;;;;;7418911;19;20136;-86
2023/06/05 15:43:05;;;;;;;0.88;0.88;;;;;;;;;;7422593;19;20149;-86
2023/06/05 15:45:32;;;;;;;1.38;1.27;;;;;;;;;;7422195;19;20125;-87
2023/06/05 15:47:59;;;;;;;1.55;1.45;;;;;;;;;;7423244;19;20117;-87
2023/06/05 15:50:26;;;;;;;0.90;0.90;;;;;;;;;;7421980;19;20145;-89
2023/06/05 15:52:53;;;;;;;13.13;2.45;;;;;;;;;;7421957;19;20121;-90
2023/06/05 15:55:20;;;;;;;0.90;0.90;;;;;;;;;;7418084;19;20133;-89
2023/06/05 15:57:48;;;;;;;0.52;0.52;;;;;;;;;;7421350;19;20156;-89
2023/06/05 16:00:16;;;;;;;0.57;0.57;;;;;;;;;;7425153;19;20141;-88
2023/06/05 16:02:43;;;;;;;1.60;1.35;;;;;;;;;;7421227;19;20155;-89
2023/06/05 16:05:11;;;;;;;1.00;1.00;;;;;;;;;;7426107;19;20137;-88
2023/06/05 16:07:38;;;;;;;1.45;1.35;;;;;;;;;;7418263;19;20153;-89
2023/06/05 16:10:05;;;;;;;0.90;0.90;;;;;;;;;;7424076;19;20378;-89
2023/06/05 16:12:32;;;;;;;3.38;1.08;;;;;;;;;;7429373;19;20141;-90
2023/06/05 16:14:58;;;;;;;1.27;1.17;;;;;;;;;;7432659;19;20148;-91
2023/06/05 16:17:25;;;;;;;0.93;0.93;;;;;;;;;;7427620;19;20145;-88
2023/06/05 16:19:52;;;;;;;0.75;0.75;;;;;;;;;;7432002;19;20117;-89
2023/06/05 16:22:22;;;;;;;2.92;1.25;;;;;;;;;;7430460;19;20125;-89
2023/06/05 16:24:49;;;;;;;0.85;0.77;;;;;;;;;;7429217;19;20154;-89
2023/06/05 16:27:18;;;;;;;0.73;0.73;;;;;;;;;;7430437;19;20144;-89
2023/06/05 16:29:46;;;;;;;0.80;0.80;;;;;;;;;;7425820;19;20451;-89
2023/06/05 16:32:13;;;;;;;0.80;0.80;;;;;;;;;;7426278;19;20180;-89
2023/06/05 16:34:40;;;;;;;0.70;0.70;;;;;;;;;;7431365;19;20156;-88
2023/06/05 16:37:07;;;;;;;0.77;0.75;;;;;;;;;;7417845;19;20137;-89
2023/06/05 16:39:34;;;;;;;0.77;0.70;;;;;;;;;;7409693;19;20172;-89
2023/06/05 16:42:05;;;;;;;2.38;1.27;;;;;;;;;;7407077;19;20179;-89
2023/06/05 16:44:32;;;;;;;0.88;0.88;;;;;;;;;;7432908;19;20140;-91
2023/06/05 16:47:30;;;;;;;0.55;0.55;;;;;;;;;;7434085;19;20148;-89
2023/06/05 16:49:58;;;;;;;0.73;0.73;;;;;;;;;;7432276;19;20145;-89
2023/06/05 16:53:04;;;;;;;1.00;1.00;;;;;;;;;;7433231;19;20145;-89
2023/06/05 16:55:54;;;;;;;0.40;0.40;;;;;;;;;;7431080;19;20154;-88